Time;durP1;ratioP1;P1;durP2;ratioP2;P2;SDS_P1;SDS_P2;PMS_P1;PMS_P2;Temp;Humidity;BMP_temperature;BMP_pressure;BME280_temperature;BME280_humidity;BME280_pressure;Samples;Min_cycle;Max_cycle;Signal;HPM_P1;HPM_P2
2022/09/09 00:02:06;;;;;;;6.40;3.13;;;15.40;99.70;;;;;;5033855;28;20471;-79
2022/09/09 00:04:36;;;;;;;5.45;2.92;;;15.40;99.80;;;;;;5033576;28;20033;-79
2022/09/09 00:07:16;;;;;;;6.93;3.50;;;15.40;99.80;;;;;;5033594;28;20477;-79
2022/09/09 00:10:01;;;;;;;5.70;3.10;;;15.40;99.80;;;;;;5033857;28;20389;-79
2022/09/09 00:12:55;;;;;;;6.50;2.80;;;15.40;99.90;;;;;;5034783;28;20033;-79
2022/09/09 00:15:46;;;;;;;5.80;3.17;;;15.40;99.90;;;;;;5034677;28;20022;-79
2022/09/09 00:18:35;;;;;;;4.95;2.85;;;15.40;99.90;;;;;;5030437;28;20133;-79
2022/09/09 00:21:17;;;;;;;8.65;2.92;;;15.40;99.90;;;;;;5034916;28;20029;-79
2022/09/09 00:23:54;;;;;;;6.10;2.75;;;15.40;99.90;;;;;;5034415;28;20103;-79
2022/09/09 00:26:31;;;;;;;9.65;3.08;;;15.40;99.90;;;;;;5034470;28;20083;-79
2022/09/09 00:29:09;;;;;;;7.32;2.88;;;15.40;99.90;;;;;;5034006;28;20393;-80
2022/09/09 00:31:37;;;;;;;5.85;2.70;;;15.40;99.90;;;;;;5034523;28;20029;-79
2022/09/09 00:34:15;;;;;;;4.90;2.13;;;15.30;99.90;;;;;;5034727;28;20055;-79
2022/09/09 00:36:43;;;;;;;4.90;2.40;;;15.40;99.90;;;;;;5034293;28;20029;-78
2022/09/09 00:39:25;;;;;;;4.38;2.00;;;15.40;99.90;;;;;;5034234;28;20079;-79
2022/09/09 00:42:23;;;;;;;6.18;2.45;;;15.40;99.90;;;;;;5034124;28;20038;-79
2022/09/09 00:44:48;;;;;;;4.53;2.35;;;15.40;99.90;;;;;;5032794;28;20497;-79
2022/09/09 00:47:23;;;;;;;6.95;2.20;;;15.40;99.90;;;;;;5034171;28;20030;-79
2022/09/09 00:50:29;;;;;;;7.30;2.50;;;15.40;99.90;;;;;;5033100;28;20026;-79
2022/09/09 00:53:24;;;;;;;4.55;2.17;;;15.30;99.90;;;;;;5012214;28;20030;-79
2022/09/09 00:56:05;;;;;;;5.68;1.60;;;15.30;99.90;;;;;;5033082;28;20025;-79
2022/09/09 00:58:32;;;;;;;4.20;2.00;;;15.20;99.90;;;;;;5032627;28;20029;-79
2022/09/09 01:01:08;;;;;;;4.57;1.95;;;15.20;99.90;;;;;;5033618;28;20033;-79
2022/09/09 01:03:55;;;;;;;4.68;1.75;;;15.20;99.90;;;;;;5033895;28;20030;-79
2022/09/09 01:06:33;;;;;;;4.22;1.67;;;15.20;99.90;;;;;;5032611;28;20485;-79
2022/09/09 01:09:21;;;;;;;5.25;2.05;;;15.10;99.90;;;;;;5033822;28;20034;-79
2022/09/09 01:11:52;;;;;;;7.18;1.58;;;15.20;99.90;;;;;;5032532;28;20026;-79
2022/09/09 01:14:30;;;;;;;5.35;2.03;;;15.20;99.90;;;;;;5032554;28;20481;-79
2022/09/09 01:17:05;;;;;;;4.68;1.48;;;15.10;99.90;;;;;;5034151;28;20073;-79
2022/09/09 01:19:46;;;;;;;4.88;1.60;;;15.10;99.90;;;;;;5033581;28;20034;-79
2022/09/09 01:22:50;;;;;;;7.32;1.75;;;15.00;99.90;;;;;;5026055;28;20087;-79
2022/09/09 01:25:43;;;;;;;5.18;1.60;;;15.00;99.90;;;;;;5014817;28;20044;-79
2022/09/09 01:28:15;;;;;;;5.20;1.50;;;15.00;99.90;;;;;;5014652;28;20025;-80
2022/09/09 01:30:41;;;;;;;2.80;1.50;;;15.00;99.90;;;;;;5019272;28;20044;-79
2022/09/09 01:33:13;;;;;;;3.92;1.33;;;15.00;99.90;;;;;;5013757;28;20437;-79
2022/09/09 01:36:24;;;;;;;2.92;1.40;;;15.00;99.90;;;;;;5013796;28;20030;-80
2022/09/09 01:38:50;;;;;;;7.25;1.60;;;15.00;99.90;;;;;;5012454;28;20050;-79
2022/09/09 01:41:15;;;;;;;3.78;1.73;;;15.00;99.90;;;;;;5012249;28;20501;-79
2022/09/09 01:43:41;;;;;;;4.78;1.92;;;14.90;99.90;;;;;;4996257;28;20030;-80
2022/09/09 01:46:07;;;;;;;4.68;1.85;;;14.90;99.90;;;;;;5013448;28;20030;-79
2022/09/09 01:48:33;;;;;;;6.07;1.70;;;15.00;99.90;;;;;;5013605;28;20109;-79
2022/09/09 01:50:59;;;;;;;5.97;2.20;;;14.90;99.90;;;;;;5013553;28;20064;-79
2022/09/09 01:53:25;;;;;;;6.97;2.13;;;14.90;99.90;;;;;;5013423;28;20026;-79
2022/09/09 01:56:00;;;;;;;5.93;1.73;;;14.90;99.90;;;;;;5013334;28;20030;-79
2022/09/09 01:58:48;;;;;;;8.15;1.70;;;14.90;99.90;;;;;;5013341;28;20076;-79
2022/09/09 02:01:36;;;;;;;6.43;1.88;;;14.90;99.90;;;;;;5012162;28;20022;-79
2022/09/09 02:04:10;;;;;;;5.38;1.70;;;14.80;99.90;;;;;;5013505;28;20014;-79
2022/09/09 02:06:40;;;;;;;3.95;1.88;;;14.80;99.90;;;;;;5013591;28;20022;-80
2022/09/09 02:09:08;;;;;;;5.35;1.70;;;14.80;99.90;;;;;;5012433;28;20030;-79
2022/09/09 02:11:34;;;;;;;3.83;1.90;;;14.80;99.90;;;;;;5012340;28;20147;-79
2022/09/09 02:14:06;;;;;;;5.55;1.92;;;14.80;99.90;;;;;;5013629;28;20037;-79
2022/09/09 02:16:56;;;;;;;5.88;2.55;;;14.80;99.90;;;;;;5012158;28;20029;-79
2022/09/09 02:19:54;;;;;;;6.40;2.40;;;14.80;99.90;;;;;;5012696;28;20041;-80
2022/09/09 02:22:24;;;;;;;5.00;2.08;;;14.70;99.90;;;;;;5013085;28;20128;-79
2022/09/09 02:24:53;;;;;;;4.53;2.35;;;14.70;99.90;;;;;;5013170;28;20107;-79
2022/09/09 02:27:21;;;;;;;5.45;2.47;;;14.70;99.90;;;;;;5012062;28;20049;-79
2022/09/09 02:29:50;;;;;;;8.05;2.55;;;14.70;99.90;;;;;;5013327;28;20073;-80
2022/09/09 02:32:22;;;;;;;6.40;2.35;;;14.70;99.90;;;;;;5012634;28;20530;-79
2022/09/09 02:35:14;;;;;;;6.47;2.17;;;14.70;99.90;;;;;;5013550;28;20069;-78
2022/09/09 02:37:41;;;;;;;3.85;2.35;;;14.70;99.90;;;;;;5012410;28;20180;-78
2022/09/09 02:40:10;;;;;;;5.65;2.25;;;14.70;99.90;;;;;;4995832;28;20042;-78
2022/09/09 02:42:47;;;;;;;6.13;2.22;;;14.70;99.90;;;;;;5013371;28;20054;-78
2022/09/09 02:45:16;;;;;;;5.55;2.50;;;14.70;99.90;;;;;;5013559;28;20053;-78
2022/09/09 02:47:46;;;;;;;3.70;2.03;;;14.70;99.90;;;;;;5011946;28;20029;-78
2022/09/09 02:50:13;;;;;;;6.97;2.90;;;14.70;99.90;;;;;;5020636;28;20029;-78
2022/09/09 02:52:58;;;;;;;4.72;2.55;;;14.70;99.90;;;;;;5036325;28;20057;-78
2022/09/09 02:55:29;;;;;;;7.32;2.50;;;14.70;99.90;;;;;;5036667;28;20057;-78
2022/09/09 02:57:58;;;;;;;8.00;3.58;;;14.70;99.90;;;;;;5036426;28;20400;-78
2022/09/09 03:00:25;;;;;;;5.60;2.80;;;14.70;99.90;;;;;;5036474;28;20029;-77
2022/09/09 03:02:52;;;;;;;8.13;2.78;;;14.70;99.90;;;;;;5036464;28;20025;-78
2022/09/09 03:05:17;;;;;;;6.60;3.08;;;14.70;99.90;;;;;;5034851;28;20033;-78
2022/09/09 03:07:43;;;;;;;8.13;3.28;;;14.60;99.90;;;;;;5035526;28;20116;-78
2022/09/09 03:10:10;;;;;;;7.15;2.95;;;14.60;99.90;;;;;;5036022;28;20034;-79
2022/09/09 03:12:35;;;;;;;4.90;2.75;;;14.60;99.90;;;;;;5018290;28;20037;-79
2022/09/09 03:15:01;;;;;;;7.45;2.80;;;14.60;99.90;;;;;;5034618;28;20128;-79
2022/09/09 03:17:27;;;;;;;5.45;2.33;;;14.60;99.90;;;;;;5034584;28;20095;-79
2022/09/09 03:19:54;;;;;;;5.30;2.70;;;14.60;99.90;;;;;;5034640;28;20037;-79
2022/09/09 03:22:21;;;;;;;7.88;3.15;;;14.60;99.90;;;;;;5034596;28;20466;-79
2022/09/09 03:24:46;;;;;;;7.28;2.92;;;14.70;99.90;;;;;;5035341;28;20053;-78
2022/09/09 03:27:14;;;;;;;4.85;2.90;;;14.60;99.90;;;;;;5017947;28;20045;-78
2022/09/09 03:29:40;;;;;;;8.38;3.10;;;14.60;99.90;;;;;;5035589;28;20032;-78
2022/09/09 03:32:06;;;;;;;7.07;3.58;;;14.70;99.90;;;;;;5034606;28;20029;-78
2022/09/09 03:34:31;;;;;;;9.13;3.08;;;14.60;99.90;;;;;;5034302;28;20026;-78
2022/09/09 03:36:57;;;;;;;5.85;2.58;;;14.60;99.90;;;;;;5035472;28;20135;-77
2022/09/09 03:39:23;;;;;;;7.32;3.40;;;14.60;99.90;;;;;;5034141;28;20041;-78
2022/09/09 03:41:48;;;;;;;9.25;3.05;;;14.60;99.90;;;;;;5017591;28;20116;-78
2022/09/09 03:44:14;;;;;;;4.45;2.42;;;14.60;99.90;;;;;;5034306;28;20061;-78
2022/09/09 03:46:40;;;;;;;6.07;3.17;;;14.60;99.90;;;;;;5034130;28;20018;-78
2022/09/09 03:49:06;;;;;;;10.27;3.35;;;14.60;99.90;;;;;;5034022;28;20084;-78
2022/09/09 03:51:33;;;;;;;7.85;3.00;;;14.60;99.90;;;;;;5035194;28;20033;-78
2022/09/09 03:53:59;;;;;;;7.53;3.33;;;14.70;99.90;;;;;;5035132;28;20029;-78
2022/09/09 03:56:25;;;;;;;6.03;3.35;;;14.60;99.90;;;;;;5017320;28;20021;-78
2022/09/09 03:58:51;;;;;;;4.85;2.75;;;14.70;99.90;;;;;;5033849;28;20382;-77
2022/09/09 04:01:17;;;;;;;7.03;3.28;;;14.70;99.90;;;;;;5033804;28;20026;-77
2022/09/09 04:03:44;;;;;;;5.50;2.92;;;14.70;99.90;;;;;;5034407;28;20025;-78
2022/09/09 04:06:14;;;;;;;9.73;3.55;;;14.80;99.90;;;;;;5034962;28;20025;-77
2022/09/09 04:08:41;;;;;;;5.90;3.28;;;14.70;99.90;;;;;;5033643;28;20036;-78
2022/09/09 04:11:07;;;;;;;8.57;3.78;;;14.80;99.90;;;;;;5034889;28;20126;-77
2022/09/09 04:13:38;;;;;;;8.15;3.35;;;14.80;99.90;;;;;;5033646;28;20018;-77
2022/09/09 04:16:05;;;;;;;10.13;3.38;;;14.80;99.90;;;;;;5034760;28;20018;-78
2022/09/09 04:18:31;;;;;;;7.18;3.15;;;14.80;99.90;;;;;;5034141;28;20365;-77
2022/09/09 04:20:57;;;;;;;7.95;3.47;;;14.80;99.90;;;;;;5034508;28;20033;-78
2022/09/09 04:23:25;;;;;;;7.90;3.28;;;14.80;99.90;;;;;;5034367;28;20042;-77
2022/09/09 04:25:52;;;;;;;11.05;3.35;;;14.80;99.90;;;;;;5033237;28;20112;-77
2022/09/09 04:28:20;;;;;;;8.82;3.65;;;14.80;99.90;;;;;;5033606;28;20025;-77
2022/09/09 04:30:46;;;;;;;7.03;2.83;;;14.80;99.90;;;;;;5033584;28;20391;-77
2022/09/09 04:33:13;;;;;;;9.20;3.92;;;14.80;99.90;;;;;;5016591;28;20026;-78
2022/09/09 04:35:43;;;;;;;6.78;2.92;;;14.90;99.90;;;;;;5033097;28;20025;-78
2022/09/09 04:38:09;;;;;;;8.52;3.10;;;14.90;99.90;;;;;;5033547;28;20064;-78
2022/09/09 04:40:35;;;;;;;10.65;3.22;;;14.80;99.90;;;;;;5034201;28;20498;-78
2022/09/09 04:43:04;;;;;;;9.75;3.35;;;14.80;99.90;;;;;;5033500;28;20021;-78
2022/09/09 04:45:30;;;;;;;5.78;2.70;;;14.90;99.90;;;;;;5034149;28;20381;-78
2022/09/09 04:47:56;;;;;;;8.80;3.38;;;14.90;99.90;;;;;;5034202;28;20025;-78
2022/09/09 04:50:22;;;;;;;6.68;3.25;;;14.90;99.90;;;;;;5032909;28;20024;-78
2022/09/09 04:52:48;;;;;;;6.03;2.85;;;15.00;99.90;;;;;;5034162;28;20034;-78
2022/09/09 04:55:14;;;;;;;7.63;2.53;;;15.00;99.90;;;;;;5016193;28;20025;-79
2022/09/09 04:57:40;;;;;;;7.38;2.10;;;15.00;99.90;;;;;;5034232;28;20025;-78
2022/09/09 05:00:07;;;;;;;7.50;2.30;;;15.00;99.90;;;;;;5032663;28;20037;-78
2022/09/09 05:02:33;;;;;;;6.85;2.90;;;15.10;99.90;;;;;;5033818;28;20029;-79
2022/09/09 05:04:59;;;;;;;5.78;2.28;;;15.10;99.90;;;;;;5034157;28;20060;-78
2022/09/09 05:07:27;;;;;;;8.82;3.00;;;15.10;99.90;;;;;;5032842;28;20378;-78
2022/09/09 05:09:52;;;;;;;10.18;2.55;;;15.10;99.90;;;;;;5032395;28;20018;-78
2022/09/09 05:12:18;;;;;;;7.97;2.60;;;15.10;99.90;;;;;;5032631;28;20033;-77
2022/09/09 05:14:44;;;;;;;7.63;2.53;;;15.20;99.90;;;;;;5033937;28;20493;-77
2022/09/09 05:17:10;;;;;;;7.57;2.80;;;15.10;99.90;;;;;;5034056;28;20068;-78
2022/09/09 05:19:36;;;;;;;7.05;2.50;;;15.20;99.90;;;;;;5032300;28;20029;-77
2022/09/09 05:22:02;;;;;;;9.43;2.30;;;15.20;99.90;;;;;;5033592;28;20045;-78
2022/09/09 05:24:29;;;;;;;7.68;2.28;;;15.20;99.90;;;;;;5027872;28;20070;-78
2022/09/09 05:26:57;;;;;;;10.63;3.28;;;15.20;99.90;;;;;;5024580;28;20545;-78
2022/09/09 05:29:23;;;;;;;6.50;2.40;;;15.20;99.90;;;;;;5032015;28;20124;-83
2022/09/09 05:31:49;;;;;;;13.32;3.35;;;15.30;99.90;;;;;;5032317;28;20451;-84
2022/09/09 05:34:14;;;;;;;9.35;2.45;;;15.20;99.90;;;;;;5031997;28;20022;-82
2022/09/09 05:36:40;;;;;;;10.82;2.85;;;15.20;99.90;;;;;;5028377;28;20060;-84
2022/09/09 05:39:05;;;;;;;8.23;2.85;;;15.30;99.90;;;;;;5009027;28;20032;-83
2022/09/09 05:41:31;;;;;;;14.18;2.83;;;15.20;99.90;;;;;;5005359;28;20222;-83
2022/09/09 05:43:58;;;;;;;5.68;2.53;;;15.20;99.90;;;;;;5024878;28;20054;-84
2022/09/09 05:46:25;;;;;;;6.13;2.42;;;15.30;99.90;;;;;;5026118;28;20024;-84
2022/09/09 05:48:51;;;;;;;12.07;2.88;;;15.20;99.90;;;;;;5019975;28;20022;-83
2022/09/09 05:51:20;;;;;;;11.52;3.05;;;15.30;99.90;;;;;;5014685;28;20022;-82
2022/09/09 05:53:46;;;;;;;10.25;2.70;;;15.20;99.90;;;;;;5019087;28;20532;-82
2022/09/09 05:56:17;;;;;;;7.63;2.58;;;15.20;99.90;;;;;;5036700;28;20030;-83
2022/09/09 05:58:43;;;;;;;10.40;2.92;;;15.30;99.90;;;;;;5041625;28;20017;-83
2022/09/09 06:01:15;;;;;;;7.03;2.65;;;15.30;99.90;;;;;;5041657;28;20018;-84
2022/09/09 06:03:43;;;;;;;10.75;2.60;;;15.30;99.90;;;;;;5052301;28;20415;-84
2022/09/09 06:06:14;;;;;;;8.73;2.17;;;15.40;99.90;;;;;;5032993;28;20381;-84
2022/09/09 06:08:44;;;;;;;9.30;2.97;;;15.40;99.90;;;;;;5025647;28;20037;-81
2022/09/09 06:11:24;;;;;;;7.82;2.63;;;15.40;99.90;;;;;;5029811;28;20014;-83
2022/09/09 06:13:54;;;;;;;12.20;2.95;;;15.40;99.90;;;;;;5044672;28;20017;-82
2022/09/09 06:16:24;;;;;;;12.68;3.33;;;15.40;99.90;;;;;;5047925;28;20033;-83
2022/09/09 06:18:54;;;;;;;7.35;2.35;;;15.50;99.90;;;;;;5039684;28;20022;-82
2022/09/09 06:21:23;;;;;;;10.75;3.10;;;15.60;99.90;;;;;;5017492;28;20026;-82
2022/09/09 06:23:50;;;;;;;10.27;2.45;;;15.60;99.90;;;;;;5020621;28;20037;-84
2022/09/09 06:26:18;;;;;;;6.85;2.58;;;15.60;99.90;;;;;;5030875;28;20394;-83
2022/09/09 06:28:49;;;;;;;10.15;2.53;;;15.70;99.90;;;;;;5033679;28;20025;-83
2022/09/09 06:31:23;;;;;;;7.85;2.10;;;15.70;99.90;;;;;;5016115;28;20026;-80
2022/09/09 06:33:52;;;;;;;;;;;15.70;99.90;;;;;;5030293;28;20025;-83
2022/09/09 06:36:23;;;;;;;9.68;2.58;;;15.70;99.90;;;;;;5032567;28;19909;-84
2022/09/09 06:38:49;;;;;;;11.73;2.97;;;15.60;99.90;;;;;;5028861;28;20386;-84
2022/09/09 06:41:18;;;;;;;8.98;3.25;;;15.60;99.90;;;;;;5029937;28;20034;-82
2022/09/09 06:43:44;;;;;;;12.32;3.33;;;15.70;99.90;;;;;;5035739;28;20045;-83
2022/09/09 06:46:14;;;;;;;8.35;2.90;;;15.70;99.90;;;;;;5033454;28;20025;-82
2022/09/09 06:48:41;;;;;;;12.77;2.75;;;15.70;99.90;;;;;;5035138;28;20117;-84
2022/09/09 06:51:08;;;;;;;8.95;2.20;;;15.70;99.90;;;;;;5029028;28;20021;-82
2022/09/09 06:53:35;;;;;;;7.80;2.45;;;15.70;99.90;;;;;;5027903;28;20104;-83
2022/09/09 06:56:23;;;;;;;7.88;2.20;;;15.80;99.90;;;;;;5044336;28;20029;-82
2022/09/09 06:58:52;;;;;;;8.63;2.50;;;15.80;99.90;;;;;;5056123;28;20044;-83
2022/09/09 07:01:23;;;;;;;12.20;3.05;;;15.80;99.90;;;;;;5038811;28;20040;-83
2022/09/09 07:03:51;;;;;;;8.40;2.15;;;15.80;99.90;;;;;;5055052;28;20091;-82
2022/09/09 07:06:25;;;;;;;9.18;2.20;;;15.80;99.90;;;;;;5055635;28;20490;-82
2022/09/09 07:08:52;;;;;;;;;;;15.90;99.90;;;;;;5054686;28;20025;-84
2022/09/09 07:11:19;;;;;;;8.50;2.67;;;15.90;99.90;;;;;;5037738;28;19932;-82
2022/09/09 07:13:45;;;;;;;10.07;2.05;;;15.90;99.90;;;;;;5056036;28;20024;-81
2022/09/09 07:16:13;;;;;;;8.68;2.00;;;16.00;99.90;;;;;;5054484;28;20385;-84
2022/09/09 07:18:40;;;;;;;14.35;2.85;;;16.00;99.90;;;;;;5055720;28;20025;-82
2022/09/09 07:21:08;;;;;;;10.10;2.17;;;16.00;99.90;;;;;;5054404;28;20044;-85
2022/09/09 07:23:35;;;;;;;11.63;2.47;;;16.10;99.90;;;;;;5040565;28;20041;-86
2022/09/09 07:26:02;;;;;;;10.68;2.38;;;16.10;99.90;;;;;;5014848;28;20033;-83
2022/09/09 07:28:30;;;;;;;7.30;2.40;;;16.10;99.90;;;;;;5014722;28;20034;-82
2022/09/09 07:30:57;;;;;;;5.90;2.22;;;16.20;99.90;;;;;;5014616;28;20026;-83
2022/09/09 07:33:23;;;;;;;10.52;1.88;;;16.20;99.90;;;;;;5027788;28;20075;-82
2022/09/09 07:35:49;;;;;;;13.90;2.35;;;16.30;99.90;;;;;;5015652;28;20026;-83
2022/09/09 07:38:15;;;;;;;7.22;2.05;;;16.30;99.90;;;;;;5020337;28;20014;-81
2022/09/09 07:40:41;;;;;;;8.88;2.20;;;16.40;99.90;;;;;;5016190;28;20113;-83
2022/09/09 07:43:07;;;;;;;6.93;2.08;;;16.50;99.90;;;;;;5028395;28;20079;-83
2022/09/09 07:45:34;;;;;;;7.93;1.63;;;16.50;99.90;;;;;;5017193;28;20033;-85
2022/09/09 07:48:00;;;;;;;8.63;2.00;;;16.70;99.90;;;;;;5014108;28;20022;-81
2022/09/09 07:50:26;;;;;;;11.57;2.17;;;16.70;99.90;;;;;;5014219;28;20033;-81
2022/09/09 07:52:53;;;;;;;8.73;1.67;;;16.80;99.90;;;;;;5014248;28;20030;-80
2022/09/09 07:55:25;;;;;;;10.32;1.50;;;16.90;99.90;;;;;;4997573;28;20494;-83
2022/09/09 07:57:51;;;;;;;12.65;2.42;;;17.00;99.90;;;;;;5014010;28;20545;-78
2022/09/09 08:00:19;;;;;;;11.57;2.15;;;17.10;99.90;;;;;;5014522;28;20029;-80
2022/09/09 08:02:46;;;;;;;10.15;1.40;;;17.10;99.90;;;;;;5013918;28;20030;-81
2022/09/09 08:05:12;;;;;;;7.90;1.55;;;17.20;99.90;;;;;;5015170;28;20069;-78
2022/09/09 08:07:38;;;;;;;7.50;1.08;;;17.20;99.40;;;;;;5013748;28;20088;-80
2022/09/09 08:10:04;;;;;;;9.13;1.83;;;17.30;99.40;;;;;;5014919;28;20026;-81
2022/09/09 08:12:30;;;;;;;10.50;1.75;;;17.30;98.90;;;;;;4997367;28;20084;-82
2022/09/09 08:14:55;;;;;;;9.27;1.02;;;17.30;98.70;;;;;;4997272;28;20367;-81
2022/09/09 08:17:21;;;;;;;6.57;1.48;;;17.30;99.30;;;;;;5013642;28;20030;-81
2022/09/09 08:19:47;;;;;;;8.73;1.30;;;17.40;98.80;;;;;;5013660;28;20026;-80
2022/09/09 08:22:15;;;;;;;6.75;1.30;;;17.40;98.90;;;;;;5013577;28;20037;-80
2022/09/09 08:24:41;;;;;;;7.72;1.70;;;17.50;98.70;;;;;;4997108;28;20054;-82
2022/09/09 08:27:06;;;;;;;6.40;1.80;;;17.50;98.20;;;;;;4997141;28;20036;-79
2022/09/09 08:29:32;;;;;;;9.55;1.27;;;17.50;97.70;;;;;;5013499;28;20034;-78
2022/09/09 08:31:58;;;;;;;4.43;1.10;;;17.50;97.50;;;;;;5013333;28;20478;-77
2022/09/09 08:34:26;;;;;;;8.02;1.90;;;17.50;97.40;;;;;;5009094;28;20029;-81
2022/09/09 08:36:51;;;;;;;7.65;1.48;;;17.50;97.40;;;;;;5031485;28;20060;-80
2022/09/09 08:39:19;;;;;;;8.65;1.30;;;17.50;97.40;;;;;;5018491;28;20069;-80
2022/09/09 08:42:09;;;;;;;7.18;1.38;;;17.50;97.50;;;;;;5013076;28;20041;-81
2022/09/09 08:44:34;;;;;;;4.95;1.23;;;17.50;97.30;;;;;;5012992;28;20021;-82
2022/09/09 08:47:25;;;;;;;8.40;1.35;;;17.60;97.40;;;;;;5013355;28;20441;-82
2022/09/09 08:49:53;;;;;;;9.98;1.85;;;17.60;96.80;;;;;;5012542;28;20037;-80
2022/09/09 08:52:25;;;;;;;7.95;1.20;;;17.60;96.70;;;;;;5014201;28;20049;-79
2022/09/09 08:54:51;;;;;;;9.80;1.10;;;17.60;96.10;;;;;;5014165;28;20029;-78
2022/09/09 08:57:27;;;;;;;7.13;1.08;;;17.60;95.90;;;;;;4996701;28;20032;-81
2022/09/09 08:59:56;;;;;;;6.63;1.27;;;17.70;95.40;;;;;;5012893;28;20025;-80
2022/09/09 09:02:43;;;;;;;8.13;1.13;;;17.70;95.50;;;;;;5012829;28;20036;-79
2022/09/09 09:05:38;;;;;;;6.22;1.00;;;17.70;95.60;;;;;;5012785;28;20018;-82
2022/09/09 09:08:15;;;;;;;5.18;0.95;;;17.80;95.60;;;;;;5012178;28;20490;-79
2022/09/09 09:10:51;;;;;;;8.63;1.13;;;18.00;95.70;;;;;;5012639;28;20026;-82
2022/09/09 09:17:11;;;;;;;9.15;1.00;;;18.10;94.80;;;;;;5013236;28;20129;-80
2022/09/09 09:19:40;;;;;;;5.18;1.15;;;18.00;94.10;;;;;;5013769;28;20025;-79
2022/09/09 09:22:23;;;;;;;7.13;0.90;;;18.10;93.40;;;;;;5013850;28;20033;-80
2022/09/09 09:25:15;;;;;;;7.90;1.30;;;18.00;93.60;;;;;;5012301;28;20046;-81
2022/09/09 09:28:05;;;;;;;7.93;1.23;;;18.10;93.30;;;;;;5011925;28;20401;-82
2022/09/09 09:30:38;;;;;;;7.85;1.00;;;18.00;93.40;;;;;;5011775;28;20134;-83
2022/09/09 09:33:52;;;;;;;7.22;0.98;;;17.90;93.40;;;;;;5013789;28;20073;-83
2022/09/09 09:36:19;;;;;;;4.10;1.10;;;17.90;93.50;;;;;;5021201;28;20038;-83
2022/09/09 09:38:57;;;;;;;7.25;1.17;;;18.00;93.80;;;;;;5013361;28;20026;-82
2022/09/09 09:41:30;;;;;;;7.35;1.48;;;18.00;93.60;;;;;;5032080;28;20026;-80
2022/09/09 09:43:56;;;;;;;8.48;1.30;;;18.10;93.50;;;;;;5032353;28;20026;-82
2022/09/09 09:46:25;;;;;;;6.32;0.90;;;18.20;93.70;;;;;;5033498;28;20032;-80
2022/09/09 09:49:05;;;;;;;3.58;0.75;;;18.30;93.70;;;;;;5032877;28;20026;-80
2022/09/09 09:51:32;;;;;;;5.45;0.93;;;18.40;93.50;;;;;;5031918;28;20115;-81
2022/09/09 09:54:32;;;;;;;8.45;1.10;;;18.60;93.50;;;;;;5009814;28;20030;-82
2022/09/09 09:57:12;;;;;;;6.85;1.10;;;18.80;93.20;;;;;;5032883;28;20492;-81
2022/09/09 09:59:39;;;;;;;5.88;0.88;;;18.90;92.50;;;;;;5014965;28;20034;-82
2022/09/09 10:02:14;;;;;;;7.82;1.17;;;18.90;92.00;;;;;;5036320;28;20069;-80
2022/09/09 10:04:41;;;;;;;5.85;1.00;;;18.90;91.60;;;;;;5036665;28;20029;-81
2022/09/09 10:07:21;;;;;;;7.05;0.98;;;18.90;91.10;;;;;;5035366;28;20041;-81
2022/09/09 10:09:54;;;;;;;5.38;0.93;;;18.80;91.10;;;;;;5035297;28;20433;-82
2022/09/09 10:12:23;;;;;;;6.55;1.20;;;18.80;91.20;;;;;;5029101;28;20041;-82
2022/09/09 10:15:31;;;;;;;4.30;0.70;;;18.70;91.20;;;;;;5026704;28;20041;-82
2022/09/09 10:18:59;;;;;;;5.95;1.10;;;18.70;91.20;;;;;;5040715;28;20036;-81
2022/09/09 10:21:52;;;;;;;10.85;0.98;;;18.60;91.30;;;;;;5034380;28;20029;-83
2022/09/09 10:24:49;;;;;;;7.03;1.00;;;18.60;91.00;;;;;;5017742;28;20207;-82
2022/09/09 10:27:56;;;;;;;6.97;0.88;;;18.60;91.10;;;;;;5032610;28;20486;-82
2022/09/09 10:30:34;;;;;;;7.63;0.85;;;18.60;91.30;;;;;;5024150;28;20107;-81
2022/09/09 10:33:10;;;;;;;5.53;0.80;;;18.70;91.10;;;;;;5035129;28;20021;-83
2022/09/09 10:36:00;;;;;;;7.32;0.95;;;18.80;90.90;;;;;;5035238;28;20026;-81
2022/09/09 10:38:50;;;;;;;7.30;0.90;;;18.80;90.70;;;;;;5035115;28;20032;-81
2022/09/09 10:42:02;;;;;;;8.40;1.35;;;18.70;90.60;;;;;;5035377;28;20044;-81
2022/09/09 10:45:01;;;;;;;5.45;0.90;;;18.70;90.50;;;;;;5034617;28;20041;-82
2022/09/09 10:47:54;;;;;;;6.72;1.10;;;18.70;90.40;;;;;;5041911;28;20119;-83
2022/09/09 10:50:44;;;;;;;9.73;1.40;;;18.70;90.50;;;;;;5034668;28;20041;-83
2022/09/09 10:53:31;;;;;;;8.57;0.80;;;18.80;90.70;;;;;;5031499;28;20079;-82
2022/09/09 10:56:20;;;;;;;7.03;0.85;;;19.00;90.90;;;;;;5035988;28;20493;-81
2022/09/09 10:59:02;;;;;;;7.75;0.85;;;19.20;90.60;;;;;;5034801;28;20029;-78
2022/09/09 11:01:36;;;;;;;7.22;0.95;;;19.30;90.00;;;;;;5035913;28;20025;-80
2022/09/09 11:04:06;;;;;;;;;;;19.30;89.60;;;;;;5036244;28;20035;-82
2022/09/09 11:06:39;;;;;;;9.40;1.42;;;19.20;90.00;;;;;;5034415;28;19905;-82
2022/09/09 11:09:06;;;;;;;6.45;0.80;;;19.10;90.10;;;;;;5035662;28;20429;-82
2022/09/09 11:11:41;;;;;;;6.88;1.00;;;19.10;90.40;;;;;;5034055;28;20017;-81
2022/09/09 11:14:26;;;;;;;6.63;0.80;;;19.00;90.20;;;;;;5035785;28;20021;-82
2022/09/09 11:16:53;;;;;;;4.20;0.90;;;18.90;90.50;;;;;;5034351;28;20025;-84
2022/09/09 11:19:28;;;;;;;6.75;0.98;;;18.90;91.10;;;;;;5034320;28;20052;-80
2022/09/09 11:21:55;;;;;;;4.70;0.80;;;18.80;91.70;;;;;;5034371;28;20456;-82
2022/09/09 11:24:21;;;;;;;10.10;1.27;;;18.80;92.40;;;;;;5010327;28;20146;-83
2022/09/09 11:27:06;;;;;;;7.65;0.95;;;18.80;92.70;;;;;;5014598;28;20058;-82
2022/09/09 11:29:34;;;;;;;7.13;1.00;;;18.90;93.00;;;;;;5033952;28;20029;-82
2022/09/09 11:32:21;;;;;;;10.68;1.17;;;19.00;93.10;;;;;;5036214;28;20048;-82
2022/09/09 11:34:49;;;;;;;10.05;1.10;;;19.00;93.00;;;;;;5034020;28;20017;-80
2022/09/09 11:37:27;;;;;;;7.30;1.08;;;19.10;92.90;;;;;;5035287;28;20025;-82
2022/09/09 11:40:23;;;;;;;8.73;1.08;;;19.20;92.80;;;;;;5032265;28;20466;-82
2022/09/09 11:42:51;;;;;;;5.13;0.95;;;19.30;92.60;;;;;;5015401;28;20036;-82
2022/09/09 11:45:30;;;;;;;4.47;0.82;;;19.50;92.50;;;;;;5013669;28;20029;-81
2022/09/09 11:48:00;;;;;;;4.00;0.77;;;19.70;92.20;;;;;;5014201;28;20034;-82
2022/09/09 11:50:26;;;;;;;6.65;1.00;;;19.70;91.70;;;;;;5015324;28;20022;-81
2022/09/09 11:53:06;;;;;;;6.75;1.00;;;19.70;91.30;;;;;;5018170;28;20021;-80
2022/09/09 11:55:36;;;;;;;4.55;0.60;;;19.60;91.10;;;;;;5033739;28;20049;-80
2022/09/09 11:58:16;;;;;;;5.55;0.70;;;19.60;91.00;;;;;;5017472;28;20030;-83
2022/09/09 12:00:44;;;;;;;6.80;1.13;;;19.70;91.30;;;;;;5018603;28;20022;-81
2022/09/09 12:03:44;;;;;;;7.35;0.95;;;20.10;91.80;;;;;;5035194;28;20068;-79
2022/09/09 12:06:27;;;;;;;3.20;0.60;;;20.70;91.70;;;;;;5033593;28;20099;-76
2022/09/09 12:09:24;;;;;;;6.00;0.98;;;21.30;90.80;;;;;;5034855;28;20033;-82
2022/09/09 12:11:50;;;;;;;3.35;0.50;;;21.50;88.00;;;;;;5033849;28;20025;-83
2022/09/09 12:14:45;;;;;;;5.15;0.60;;;21.30;86.40;;;;;;5033659;28;20029;-82
2022/09/09 12:17:25;;;;;;;3.50;0.73;;;21.10;85.80;;;;;;5033378;28;20014;-82
2022/09/09 12:20:22;;;;;;;4.03;0.75;;;20.90;85.70;;;;;;5027116;28;20033;-83
2022/09/09 12:23:06;;;;;;;4.10;0.80;;;20.60;85.50;;;;;;5017931;28;20088;-83
2022/09/09 12:26:00;;;;;;;5.43;0.90;;;20.40;85.70;;;;;;5015134;28;20061;-82
2022/09/09 12:28:44;;;;;;;;;;;20.30;86.10;;;;;;5015071;28;20033;-82
2022/09/09 12:31:17;;;;;;;6.07;1.02;;;20.10;86.60;;;;;;5013516;28;19910;-82
2022/09/09 12:33:47;;;;;;;6.07;0.70;;;20.10;87.30;;;;;;5013437;28;20470;-81
2022/09/09 12:36:32;;;;;;;3.05;0.60;;;20.00;87.90;;;;;;4997165;28;20026;-84
2022/09/09 12:39:10;;;;;;;4.00;1.05;;;20.10;88.10;;;;;;5013142;28;20029;-84
2022/09/09 12:41:38;;;;;;;3.03;0.60;;;20.20;88.20;;;;;;5014299;28;20032;-81
2022/09/09 12:44:05;;;;;;;3.80;0.60;;;20.30;88.30;;;;;;5031887;28;20036;-84
2022/09/09 12:46:46;;;;;;;3.50;0.65;;;20.50;87.80;;;;;;5033029;28;20026;-85
2022/09/09 12:49:38;;;;;;;4.93;0.82;;;20.60;86.30;;;;;;5032628;28;20033;-82
2022/09/09 12:52:16;;;;;;;4.72;0.90;;;20.50;86.30;;;;;;5008400;28;20049;-83
2022/09/09 12:54:46;;;;;;;3.45;0.65;;;20.30;86.20;;;;;;5022728;28;20026;-83
2022/09/09 12:57:13;;;;;;;3.05;0.80;;;20.20;86.50;;;;;;5032836;28;20171;-83
2022/09/09 12:59:42;;;;;;;4.43;0.70;;;20.10;87.10;;;;;;5002796;28;20030;-85
2022/09/09 13:02:28;;;;;;;3.05;0.50;;;20.10;87.30;;;;;;5012395;28;20493;-84
2022/09/09 13:04:55;;;;;;;3.65;0.68;;;19.90;87.50;;;;;;5007433;28;20103;-85
2022/09/09 13:07:21;;;;;;;3.92;0.82;;;19.80;88.20;;;;;;5032856;28;20505;-81
2022/09/09 13:09:48;;;;;;;5.18;0.70;;;19.70;89.90;;;;;;5033854;28;20038;-85
2022/09/09 13:12:22;;;;;;;4.93;0.90;;;19.60;90.50;;;;;;5014243;28;20025;-81
2022/09/09 13:14:52;;;;;;;3.60;0.70;;;19.40;90.90;;;;;;5024442;28;20029;-81
2022/09/09 13:17:28;;;;;;;2.85;0.70;;;19.50;91.30;;;;;;5012468;28;20026;-82
2022/09/09 13:19:57;;;;;;;5.13;0.95;;;19.60;91.20;;;;;;5018136;28;20025;-82
2022/09/09 13:22:36;;;;;;;2.55;0.60;;;19.70;91.10;;;;;;5032365;28;20026;-89